createdAt,value
2023-10-15T00:01:38.044Z,45.70
2023-10-15T00:03:39.996Z,45.19
2023-10-15T00:05:44.375Z,45.54
2023-10-15T00:07:47.189Z,45.83
2023-10-15T00:09:49.040Z,46.25
2023-10-15T00:11:50.804Z,45.65
2023-10-15T00:13:54.414Z,45.79
2023-10-15T00:15:56.069Z,45.74
2023-10-15T00:18:00.879Z,45.83
2023-10-15T00:20:02.703Z,45.85
2023-10-15T00:22:04.388Z,45.77
2023-10-15T00:24:06.935Z,46.11
2023-10-15T00:26:08.800Z,46.04
2023-10-15T00:28:10.608Z,46.41
2023-10-15T00:30:14.691Z,45.77
2023-10-15T00:32:16.292Z,45.89
2023-10-15T00:34:18.001Z,46.01
2023-10-15T00:36:19.806Z,45.73
2023-10-15T00:38:21.775Z,46.28
2023-10-15T00:40:25.299Z,45.94
2023-10-15T00:42:27.124Z,46.35
2023-10-15T00:44:28.850Z,46.16
2023-10-15T00:46:32.960Z,45.87
2023-10-15T00:48:34.971Z,45.66
2023-10-15T00:50:38.716Z,46.13
2023-10-15T00:52:40.586Z,45.93
2023-10-15T00:54:42.414Z,46.14
2023-10-15T00:56:45.991Z,46.35
2023-10-15T00:58:48.039Z,46.59
2023-10-15T01:00:50.333Z,46.88
2023-10-15T01:02:56.070Z,46.91
2023-10-15T01:04:58.126Z,46.48
2023-10-15T01:06:59.825Z,46.27
2023-10-15T01:09:02.586Z,46.86
2023-10-15T01:11:12.518Z,46.90
2023-10-15T01:13:14.471Z,47.07
2023-10-15T01:15:16.729Z,47.11
2023-10-15T01:17:18.626Z,47.37
2023-10-15T01:19:22.330Z,47.53
2023-10-15T01:21:24.253Z,47.39
2023-10-15T01:23:25.895Z,47.58
2023-10-15T01:25:29.355Z,47.76
2023-10-15T01:27:31.413Z,47.52
2023-10-15T01:29:36.304Z,47.62
2023-10-15T01:31:38.002Z,47.73
2023-10-15T01:33:39.928Z,48.41
2023-10-15T01:35:42.694Z,47.75
2023-10-15T01:37:44.497Z,48.10
2023-10-15T01:39:46.143Z,48.18
2023-10-15T01:41:49.581Z,47.95
2023-10-15T01:43:51.297Z,48.46
2023-10-15T01:45:53.933Z,48.10
2023-10-15T01:47:55.933Z,48.00
2023-10-15T01:49:57.733Z,47.87
2023-10-15T01:51:59.652Z,48.20
2023-10-15T01:54:01.472Z,48.24
2023-10-15T01:56:03.526Z,49.28
2023-10-15T01:58:07.048Z,48.95
2023-10-15T02:00:11.086Z,48.75
2023-10-15T02:02:13.464Z,48.29
2023-10-15T02:04:16.775Z,48.29
2023-10-15T02:06:18.588Z,48.79
2023-10-15T02:08:20.229Z,48.76
2023-10-15T02:10:21.965Z,49.22
2023-10-15T02:12:23.626Z,49.11
2023-10-15T02:14:26.886Z,49.20
2023-10-15T02:16:28.519Z,49.57
2023-10-15T02:18:30.222Z,49.25
2023-10-15T02:20:31.854Z,49.78
2023-10-15T02:22:33.563Z,49.75
2023-10-15T02:24:35.481Z,49.73
2023-10-15T02:26:37.091Z,50.07
2023-10-15T02:28:38.729Z,50.08
2023-10-15T02:30:45.593Z,49.95
2023-10-15T02:32:47.317Z,50.21
2023-10-15T02:34:50.057Z,50.24
2023-10-15T02:36:52.086Z,50.13
2023-10-15T02:38:55.278Z,50.11
2023-10-15T02:40:57.023Z,50.45
2023-10-15T02:42:58.995Z,50.64
2023-10-15T02:45:02.537Z,50.39
2023-10-15T02:47:06.181Z,50.44
2023-10-15T02:49:07.841Z,50.46
2023-10-15T02:51:09.572Z,50.91
2023-10-15T02:53:11.315Z,50.72
2023-10-15T02:55:13.406Z,50.52
2023-10-15T02:57:15.627Z,50.95
2023-10-15T02:59:17.450Z,50.77
2023-10-15T03:01:19.868Z,51.14
2023-10-15T03:03:23.047Z,51.06
2023-10-15T03:05:25.076Z,51.30
2023-10-15T03:07:26.873Z,51.70
2023-10-15T03:09:29.630Z,50.85
2023-10-15T03:11:31.275Z,50.94
2023-10-15T03:13:32.999Z,51.42
2023-10-15T03:15:37.810Z,51.47
2023-10-15T03:17:39.563Z,52.12
2023-10-15T03:19:43.632Z,51.46
2023-10-15T03:21:45.779Z,51.46
2023-10-15T03:23:48.059Z,51.48
2023-10-15T03:25:58.030Z,51.66
2023-10-15T03:27:59.730Z,51.74
2023-10-15T03:30:01.632Z,51.47
2023-10-15T03:32:03.913Z,51.34
2023-10-15T03:34:05.935Z,51.19
2023-10-15T03:36:11.031Z,51.56
2023-10-15T03:38:12.716Z,51.76
2023-10-15T03:40:15.627Z,51.65
2023-10-15T03:42:19.782Z,51.78
2023-10-15T03:44:22.392Z,51.71
2023-10-15T03:46:24.343Z,51.64
2023-10-15T03:48:26.274Z,51.78
2023-10-15T03:50:28.130Z,51.63
2023-10-15T03:52:31.147Z,51.70
2023-10-15T03:54:32.775Z,51.90
2023-10-15T03:56:34.698Z,51.74
2023-10-15T03:58:36.272Z,52.23
2023-10-15T04:00:37.885Z,51.92
2023-10-15T04:02:41.805Z,51.78
2023-10-15T04:04:47.878Z,52.05
2023-10-15T04:06:49.627Z,52.02
2023-10-15T04:08:52.702Z,51.76
2023-10-15T04:10:55.119Z,51.73
2023-10-15T04:12:57.319Z,51.97
2023-10-15T04:14:59.259Z,52.20
2023-10-15T04:17:01.286Z,52.00
2023-10-15T04:19:04.542Z,52.47
2023-10-15T04:21:07.720Z,52.66
2023-10-15T04:23:09.651Z,52.74
2023-10-15T04:25:14.477Z,52.43
2023-10-15T04:27:16.066Z,52.65
2023-10-15T04:29:17.978Z,53.46
2023-10-15T04:31:19.992Z,53.34
2023-10-15T04:33:22.931Z,53.66
2023-10-15T04:35:24.790Z,53.66
2023-10-15T04:37:26.463Z,53.54
2023-10-15T04:39:50.412Z,53.68
2023-10-15T04:41:51.154Z,53.60
2023-10-15T04:43:52.956Z,53.50
2023-10-15T04:45:55.704Z,53.80
2023-10-15T04:47:57.603Z,53.95
2023-10-15T04:49:59.271Z,54.17
2023-10-15T04:52:00.919Z,53.72
2023-10-15T04:54:02.688Z,53.70
2023-10-15T04:56:04.755Z,54.15
2023-10-15T04:58:08.208Z,54.39
2023-10-15T05:00:12.710Z,54.11
2023-10-15T05:02:14.543Z,54.01
2023-10-15T05:04:16.462Z,53.72
2023-10-15T05:06:18.163Z,54.10
2023-10-15T05:08:20.048Z,54.14
2023-10-15T05:10:22.706Z,54.34
2023-10-15T05:12:26.835Z,54.07
2023-10-15T05:14:31.258Z,54.14
2023-10-15T05:16:34.341Z,53.62
2023-10-15T05:18:36.185Z,53.56
2023-10-15T05:20:38.838Z,53.61
2023-10-15T05:22:40.640Z,54.08
2023-10-15T05:24:42.395Z,53.86
2023-10-15T05:26:45.450Z,54.00
2023-10-15T05:28:47.042Z,54.00
2023-10-15T05:30:51.049Z,53.47
2023-10-15T05:32:52.720Z,54.21
2023-10-15T05:34:54.486Z,53.86
2023-10-15T05:36:56.161Z,54.10
2023-10-15T05:38:57.904Z,54.04
2023-10-15T05:40:59.709Z,54.61
2023-10-15T05:43:01.459Z,54.85
2023-10-15T05:45:03.680Z,55.14
2023-10-15T05:47:06.705Z,54.93
2023-10-15T05:49:08.657Z,54.84
2023-10-15T05:51:10.497Z,55.09
2023-10-15T05:53:14.376Z,55.07
2023-10-15T05:55:16.178Z,55.22
2023-10-15T05:57:18.125Z,55.47
2023-10-15T05:59:20.111Z,54.91
2023-10-15T06:01:21.859Z,54.47
2023-10-15T06:03:25.182Z,54.06
2023-10-15T06:05:26.891Z,54.05
2023-10-15T06:07:29.709Z,54.40
2023-10-15T06:09:31.739Z,54.59
2023-10-15T06:11:33.410Z,53.87
2023-10-15T06:13:37.694Z,53.87
2023-10-15T06:15:39.340Z,54.05
2023-10-15T06:17:41.220Z,54.19
2023-10-15T06:19:44.745Z,54.18
2023-10-15T06:21:46.380Z,54.31
2023-10-15T06:23:48.019Z,54.58
2023-10-15T06:25:49.715Z,54.90
2023-10-15T06:27:51.546Z,55.85
2023-10-15T06:29:53.498Z,56.26
2023-10-15T06:31:55.185Z,56.21
2023-10-15T06:33:56.938Z,56.62
2023-10-15T06:36:01.451Z,57.02
2023-10-15T06:38:03.437Z,56.65
2023-10-15T06:40:19.009Z,56.44
2023-10-15T06:42:22.852Z,56.33
2023-10-15T06:44:24.711Z,56.12
2023-10-15T06:46:26.818Z,55.89
2023-10-15T06:48:28.554Z,56.63
2023-10-15T06:50:30.636Z,56.14
2023-10-15T06:52:36.869Z,56.54
2023-10-15T06:54:38.837Z,55.69
2023-10-15T06:56:41.376Z,55.76
2023-10-15T06:58:43.377Z,55.87
2023-10-15T07:00:45.117Z,55.69
2023-10-15T07:02:46.966Z,55.54
2023-10-15T07:04:48.821Z,55.26
2023-10-15T07:06:50.482Z,55.29
2023-10-15T07:08:53.581Z,54.82
2023-10-15T07:10:55.242Z,54.70
2023-10-15T07:12:57.024Z,54.73
2023-10-15T07:14:58.864Z,54.65
2023-10-15T07:17:00.507Z,55.47
2023-10-15T07:19:02.291Z,55.02
2023-10-15T07:21:04.081Z,55.51
2023-10-15T07:23:05.916Z,55.09
2023-10-15T07:25:09.548Z,54.51
2023-10-15T07:27:11.228Z,55.13
2023-10-15T07:29:13.395Z,54.51
2023-10-15T07:31:15.076Z,54.43
2023-10-15T07:33:16.783Z,54.45
2023-10-15T07:35:18.548Z,54.11
2023-10-15T07:37:20.410Z,53.64
2023-10-15T07:39:23.058Z,53.92
2023-10-15T07:41:29.879Z,53.88
2023-10-15T07:43:31.572Z,53.79
2023-10-15T07:45:34.131Z,53.87
2023-10-15T07:47:36.034Z,54.05
2023-10-15T07:49:37.877Z,53.51
2023-10-15T07:51:39.912Z,53.81
2023-10-15T07:53:41.667Z,53.25
2023-10-15T07:55:43.326Z,53.86
2023-10-15T07:57:46.636Z,53.40
2023-10-15T07:59:48.251Z,52.92
2023-10-15T08:01:49.884Z,52.97
2023-10-15T08:03:52.337Z,52.13
2023-10-15T08:05:54.562Z,52.02
2023-10-15T08:07:56.418Z,51.09
2023-10-15T08:09:58.405Z,50.29
2023-10-15T08:12:00.141Z,50.70
2023-10-15T08:14:03.459Z,48.98
2023-10-15T08:16:05.725Z,49.63
2023-10-15T08:18:07.456Z,48.90
2023-10-15T08:20:09.681Z,49.11
2023-10-15T08:22:11.372Z,47.36
2023-10-15T08:24:13.008Z,46.65
2023-10-15T08:26:14.740Z,47.03
2023-10-15T08:28:16.424Z,46.86
2023-10-15T08:30:20.072Z,45.98
2023-10-15T08:32:22.059Z,45.75
2023-10-15T08:34:23.940Z,44.36
2023-10-15T08:36:25.921Z,43.96
2023-10-15T08:38:27.577Z,43.14
2023-10-15T08:40:32.690Z,43.09
2023-10-15T08:42:38.826Z,42.63
2023-10-15T08:44:40.950Z,41.74
2023-10-15T08:46:44.830Z,42.36
2023-10-15T08:48:48.258Z,42.49
2023-10-15T08:50:50.306Z,42.41
2023-10-15T08:52:52.609Z,43.91
2023-10-15T08:54:55.046Z,43.74
2023-10-15T08:56:58.478Z,41.85
2023-10-15T08:59:00.707Z,41.05
2023-10-15T09:01:05.488Z,41.26
2023-10-15T09:03:08.614Z,41.28
2023-10-15T09:05:11.506Z,40.50
2023-10-15T09:07:14.758Z,40.82
2023-10-15T09:09:16.574Z,40.50
2023-10-15T09:11:18.580Z,40.13
2023-10-15T09:13:20.503Z,38.19
2023-10-15T09:15:22.191Z,37.69
2023-10-15T09:17:23.931Z,38.29
2023-10-15T09:19:26.939Z,38.38
2023-10-15T09:21:30.529Z,39.22
2023-10-15T09:23:33.080Z,37.65
2023-10-15T09:25:34.700Z,37.55
2023-10-15T09:27:47.067Z,38.21
2023-10-15T09:29:48.817Z,39.32
2023-10-15T09:31:50.695Z,37.78
2023-10-15T09:33:52.549Z,37.50
2023-10-15T09:35:55.586Z,37.45
2023-10-15T09:37:57.407Z,38.93
2023-10-15T09:39:59.492Z,37.40
2023-10-15T09:42:02.375Z,38.19
2023-10-15T09:44:05.196Z,38.43
2023-10-15T09:46:08.029Z,38.63
2023-10-15T09:48:10.427Z,38.71
2023-10-15T09:50:12.220Z,38.65
2023-10-15T09:52:16.530Z,37.08
2023-10-15T09:54:20.326Z,36.64
2023-10-15T09:56:24.003Z,35.98
2023-10-15T09:58:27.676Z,36.07
2023-10-15T10:00:34.691Z,35.15
2023-10-15T10:02:48.557Z,32.68
2023-10-15T10:05:05.414Z,33.18
2023-10-15T10:07:26.223Z,31.45
2023-10-15T10:09:48.279Z,31.64
2023-10-15T10:12:00.303Z,31.57
2023-10-15T10:14:23.464Z,30.35
2023-10-15T10:16:28.178Z,31.43
2023-10-15T10:18:31.955Z,30.23
2023-10-15T10:20:36.813Z,31.63
2023-10-15T10:22:43.230Z,30.74
2023-10-15T10:24:47.284Z,32.10
2023-10-15T10:26:53.386Z,30.46
2023-10-15T10:28:55.177Z,30.82
2023-10-15T10:30:58.244Z,31.40
2023-10-15T10:33:02.791Z,32.20
2023-10-15T10:35:15.078Z,31.52
2023-10-15T10:37:23.570Z,30.91
2023-10-15T10:39:43.330Z,30.71
2023-10-15T10:41:46.507Z,33.06
2023-10-15T10:43:49.771Z,32.30
2023-10-15T10:45:57.144Z,32.66
2023-10-15T10:47:59.064Z,32.71
2023-10-15T10:50:01.686Z,34.00
2023-10-15T10:52:07.898Z,33.88
2023-10-15T10:54:27.693Z,31.90
2023-10-15T10:56:57.125Z,31.40
2023-10-15T10:58:59.322Z,31.13
2023-10-15T11:01:01.625Z,29.87
2023-10-15T11:03:03.893Z,29.47
2023-10-15T11:05:06.455Z,28.02
2023-10-15T11:07:10.097Z,28.52
2023-10-15T11:09:13.313Z,27.25
2023-10-15T11:11:16.579Z,26.22
2023-10-15T11:13:18.384Z,26.49
2023-10-15T11:15:20.001Z,27.28
2023-10-15T11:17:22.063Z,27.34
2023-10-15T11:19:25.719Z,26.35
2023-10-15T11:21:27.340Z,25.93
2023-10-15T11:23:29.338Z,27.09
2023-10-15T11:25:31.344Z,26.29
2023-10-15T11:27:34.508Z,26.90
2023-10-15T11:29:36.396Z,25.53
2023-10-15T11:31:38.158Z,25.57
2023-10-15T11:33:40.575Z,24.99
2023-10-15T11:35:42.416Z,24.87
2023-10-15T11:37:44.393Z,24.01
2023-10-15T11:39:46.097Z,24.67
2023-10-15T11:41:51.869Z,24.07
2023-10-15T11:43:55.014Z,23.19
2023-10-15T11:45:56.737Z,24.24
2023-10-15T11:47:58.981Z,24.58
2023-10-15T11:50:00.797Z,25.62
2023-10-15T11:52:04.529Z,25.50
2023-10-15T11:54:06.568Z,24.44
2023-10-15T11:56:14.057Z,24.84
2023-10-15T11:58:15.701Z,26.79
2023-10-15T12:00:21.085Z,26.97
2023-10-15T12:02:22.667Z,25.61
2023-10-15T12:04:24.552Z,25.48
2023-10-15T12:06:26.587Z,25.41
2023-10-15T12:08:28.235Z,25.13
2023-10-15T12:10:30.572Z,24.99
2023-10-15T12:12:32.263Z,24.63
2023-10-15T12:14:34.016Z,24.27
2023-10-15T12:16:37.211Z,25.38
2023-10-15T12:18:39.002Z,24.54
2023-10-15T12:20:40.725Z,26.06
2023-10-15T12:22:42.398Z,26.07
2023-10-15T12:24:44.199Z,24.50
2023-10-15T12:26:47.536Z,25.62
2023-10-15T12:28:50.674Z,26.98
2023-10-15T12:30:52.527Z,28.91
2023-10-15T12:32:56.522Z,25.88
2023-10-15T12:34:58.271Z,25.55
2023-10-15T12:36:59.893Z,25.93
2023-10-15T12:39:01.516Z,28.73
2023-10-15T12:41:03.543Z,26.48
2023-10-15T12:43:05.849Z,28.31
2023-10-15T12:45:08.453Z,28.12
2023-10-15T12:47:10.198Z,28.28
2023-10-15T12:49:13.287Z,28.07
2023-10-15T12:51:15.324Z,27.71
2023-10-15T12:53:17.138Z,29.18
2023-10-15T12:55:18.967Z,26.77
2023-10-15T12:57:20.578Z,25.95
2023-10-15T12:59:22.395Z,28.31
2023-10-15T13:01:24.166Z,28.79
2023-10-15T13:03:25.802Z,28.70
2023-10-15T13:05:28.977Z,28.53
2023-10-15T13:07:30.784Z,29.41
2023-10-15T13:09:32.477Z,30.50
2023-10-15T13:11:34.232Z,32.33
2023-10-15T13:13:35.949Z,31.68
2023-10-15T13:15:37.662Z,33.24
2023-10-15T13:17:39.343Z,33.08
2023-10-15T13:19:41.370Z,32.00
2023-10-15T13:21:44.463Z,31.58
2023-10-15T13:23:46.019Z,31.86
2023-10-15T13:25:47.747Z,33.03
2023-10-15T13:27:49.478Z,32.42
2023-10-15T13:29:51.127Z,32.58
2023-10-15T13:31:52.885Z,32.23
2023-10-15T13:33:54.516Z,33.40
2023-10-15T13:35:56.171Z,33.15
2023-10-15T13:37:59.214Z,32.33
2023-10-15T13:40:00.996Z,32.00
2023-10-15T13:42:02.892Z,33.84
2023-10-15T13:44:04.989Z,32.13
2023-10-15T13:46:06.560Z,33.41
2023-10-15T13:48:08.451Z,32.35
2023-10-15T13:50:11.453Z,32.15
2023-10-15T13:52:13.114Z,33.29
2023-10-15T13:54:16.224Z,32.62
2023-10-15T13:56:17.977Z,33.77
2023-10-15T13:58:19.862Z,32.13
2023-10-15T14:00:21.864Z,31.93
2023-10-15T14:02:24.058Z,31.60
2023-10-15T14:04:26.271Z,32.21
2023-10-15T14:06:28.244Z,30.76
2023-10-15T14:08:29.968Z,32.31
2023-10-15T14:10:33.080Z,31.78
2023-10-15T14:12:34.698Z,31.30
2023-10-15T14:14:36.577Z,32.55
2023-10-15T14:16:38.294Z,32.28
2023-10-15T14:18:40.306Z,34.05
2023-10-15T14:20:42.088Z,34.59
2023-10-15T14:22:44.403Z,36.79
2023-10-15T14:24:46.039Z,35.95
2023-10-15T14:26:49.112Z,33.23
2023-10-15T14:28:50.785Z,33.97
2023-10-15T14:30:52.434Z,33.80
2023-10-15T14:32:54.375Z,34.01
2023-10-15T14:34:56.448Z,33.65
2023-10-15T14:36:58.030Z,35.28
2023-10-15T14:38:59.929Z,34.49
2023-10-15T14:41:01.663Z,35.12
2023-10-15T14:43:04.810Z,34.98
2023-10-15T14:45:08.248Z,39.53
2023-10-15T14:47:10.002Z,34.99
2023-10-15T14:49:11.708Z,35.14
2023-10-15T14:51:13.375Z,36.07
2023-10-15T14:53:14.988Z,38.59
2023-10-15T14:55:16.816Z,36.91
2023-10-15T14:57:19.225Z,34.97
2023-10-15T14:59:22.512Z,34.88
2023-10-15T15:01:24.249Z,37.17
2023-10-15T15:03:26.054Z,34.90
2023-10-15T15:05:27.834Z,36.53
2023-10-15T15:07:29.492Z,38.24
2023-10-15T15:09:31.349Z,35.94
2023-10-15T15:11:33.051Z,35.18
2023-10-15T15:13:34.671Z,34.96
2023-10-15T15:15:42.480Z,37.47
2023-10-15T15:17:46.777Z,34.35
2023-10-15T15:19:48.335Z,35.82
2023-10-15T15:21:49.961Z,35.80
2023-10-15T15:23:51.531Z,36.03
2023-10-15T15:25:53.191Z,35.28
2023-10-15T15:27:54.919Z,35.03
2023-10-15T15:29:56.571Z,34.53
2023-10-15T15:31:59.794Z,35.01
2023-10-15T15:34:01.626Z,35.15
2023-10-15T15:36:03.750Z,34.11
2023-10-15T15:38:05.445Z,34.98
2023-10-15T15:40:08.977Z,38.48
2023-10-15T15:42:10.693Z,36.22
2023-10-15T15:44:12.914Z,35.94
2023-10-15T15:46:14.617Z,35.15
2023-10-15T15:48:17.881Z,36.28
2023-10-15T15:50:19.799Z,37.27
2023-10-15T15:52:21.758Z,37.84
2023-10-15T15:54:23.505Z,35.82
2023-10-15T15:56:25.779Z,35.11
2023-10-15T15:58:27.636Z,34.60
2023-10-15T16:00:29.319Z,34.61
2023-10-15T16:02:31.180Z,37.66
2023-10-15T16:04:34.324Z,34.55
2023-10-15T16:06:36.485Z,33.75
2023-10-15T16:08:38.147Z,36.18
2023-10-15T16:10:39.798Z,35.27
2023-10-15T16:12:41.605Z,34.25
2023-10-15T16:14:43.468Z,34.97
2023-10-15T16:16:45.241Z,35.96
2023-10-15T16:18:46.950Z,35.60
2023-10-15T16:20:51.279Z,35.55
2023-10-15T16:22:53.054Z,34.80
2023-10-15T16:25:04.131Z,33.26
2023-10-15T16:27:07.849Z,34.13
2023-10-15T16:29:09.645Z,34.39
2023-10-15T16:31:11.246Z,34.71
2023-10-15T16:33:12.997Z,34.75
2023-10-15T16:35:14.932Z,35.76
2023-10-15T16:37:18.210Z,35.37
2023-10-15T16:39:19.852Z,35.78
2023-10-15T16:41:21.876Z,35.85
2023-10-15T16:43:23.703Z,36.08
2023-10-15T16:45:25.631Z,35.88
2023-10-15T16:47:27.596Z,37.23
2023-10-15T16:49:29.304Z,36.06
2023-10-15T16:51:30.946Z,35.77
2023-10-15T16:53:34.368Z,36.14
2023-10-15T16:55:36.606Z,36.08
2023-10-15T16:57:38.249Z,35.31
2023-10-15T16:59:39.982Z,39.13
2023-10-15T17:01:42.338Z,35.38
2023-10-15T17:03:44.110Z,36.16
2023-10-15T17:05:45.956Z,36.09
2023-10-15T17:07:47.739Z,36.21
2023-10-15T17:09:51.163Z,36.40
2023-10-15T17:11:52.950Z,36.48
2023-10-15T17:13:54.825Z,36.67
2023-10-15T17:15:56.422Z,36.63
2023-10-15T17:17:58.087Z,37.11
2023-10-15T17:19:59.745Z,38.03
2023-10-15T17:22:01.488Z,37.88
2023-10-15T17:24:03.932Z,38.37
2023-10-15T17:26:07.109Z,38.34
2023-10-15T17:28:08.921Z,37.74
2023-10-15T17:32:16.095Z,37.92
2023-10-15T17:34:17.765Z,37.46
2023-10-15T17:36:19.411Z,37.37
2023-10-15T17:38:21.068Z,38.23
2023-10-15T17:40:22.817Z,38.50
2023-10-15T17:42:25.928Z,38.37
2023-10-15T17:44:27.824Z,38.68
2023-10-15T17:46:29.786Z,38.65
2023-10-15T17:48:31.659Z,38.86
2023-10-15T17:50:34.299Z,39.16
2023-10-15T17:52:36.828Z,39.36
2023-10-15T17:54:38.572Z,39.60
2023-10-15T17:56:40.325Z,39.40
2023-10-15T17:58:43.629Z,39.64
2023-10-15T18:00:45.801Z,39.60
2023-10-15T18:02:49.969Z,39.77
2023-10-15T18:04:51.774Z,39.27
2023-10-15T18:06:53.479Z,39.55
2023-10-15T18:08:55.272Z,39.45
2023-10-15T18:10:57.125Z,39.81
2023-10-15T18:12:58.991Z,39.89
2023-10-15T18:15:02.189Z,40.11
2023-10-15T18:17:03.956Z,40.45
2023-10-15T18:19:06.103Z,40.61
2023-10-15T18:21:08.248Z,40.78
2023-10-15T18:23:10.141Z,40.69
2023-10-15T18:25:11.936Z,41.08
2023-10-15T18:27:13.728Z,41.38
2023-10-15T18:29:15.387Z,41.76
2023-10-15T18:31:18.720Z,42.03
2023-10-15T18:33:20.546Z,41.68
2023-10-15T18:35:23.896Z,42.08
2023-10-15T18:37:28.188Z,42.25
2023-10-15T18:39:29.825Z,42.55
2023-10-15T18:41:32.525Z,42.08
2023-10-15T18:43:34.187Z,42.06
2023-10-15T18:45:35.857Z,42.23
2023-10-15T18:47:39.512Z,42.55
2023-10-15T18:49:41.318Z,43.17
2023-10-15T18:51:43.013Z,42.50
2023-10-15T18:53:45.037Z,42.68
2023-10-15T18:55:46.746Z,42.37
2023-10-15T18:57:48.446Z,42.17
2023-10-15T18:59:50.289Z,42.95
2023-10-15T19:01:52.262Z,42.52
2023-10-15T19:03:55.470Z,41.74
2023-10-15T19:05:57.575Z,42.34
2023-10-15T19:07:59.300Z,42.28
2023-10-15T19:10:03.311Z,41.68
2023-10-15T19:12:05.440Z,41.89
2023-10-15T19:14:07.598Z,41.65
2023-10-15T19:16:09.629Z,41.50
2023-10-15T19:18:12.025Z,41.43
2023-10-15T19:20:15.435Z,41.41
2023-10-15T19:22:17.498Z,40.66
2023-10-15T19:24:19.481Z,39.51
2023-10-15T19:26:21.440Z,38.56
2023-10-15T19:28:23.221Z,39.06
2023-10-15T19:30:24.888Z,39.55
2023-10-15T19:32:26.768Z,39.73
2023-10-15T19:34:28.626Z,40.22
2023-10-15T19:36:31.848Z,40.45
2023-10-15T19:38:33.641Z,40.56
2023-10-15T19:40:35.331Z,40.37
2023-10-15T19:42:38.115Z,40.18
2023-10-15T19:44:40.031Z,40.41
2023-10-15T19:46:41.733Z,40.66
2023-10-15T19:48:43.460Z,41.23
2023-10-15T19:50:45.831Z,41.02
2023-10-15T19:52:49.030Z,41.77
2023-10-15T19:54:50.738Z,41.78
2023-10-15T19:56:53.813Z,41.56
2023-10-15T19:58:57.636Z,41.69
2023-10-15T20:00:59.388Z,41.67
2023-10-15T20:03:01.186Z,42.01
2023-10-15T20:05:03.203Z,41.72
2023-10-15T20:07:05.700Z,41.08
2023-10-15T20:09:09.027Z,40.58
2023-10-15T20:11:10.684Z,40.91
2023-10-15T20:13:12.708Z,41.40
2023-10-15T20:15:14.664Z,41.56
2023-10-15T20:17:16.559Z,41.48
2023-10-15T20:19:18.223Z,41.34
2023-10-15T20:21:20.222Z,41.39
2023-10-15T20:23:22.064Z,41.47
2023-10-15T20:25:25.107Z,41.28
2023-10-15T20:27:26.941Z,41.26
2023-10-15T20:29:28.759Z,41.68
2023-10-15T20:31:30.656Z,41.49
2023-10-15T20:33:32.526Z,41.28
2023-10-15T20:35:34.237Z,41.39
2023-10-15T20:37:35.825Z,41.36
2023-10-15T20:39:37.619Z,41.47
2023-10-15T20:41:40.935Z,41.72
2023-10-15T20:43:43.089Z,41.97
2023-10-15T20:45:45.695Z,42.49
2023-10-15T20:47:49.619Z,42.10
2023-10-15T20:49:51.305Z,42.50
2023-10-15T20:51:52.944Z,42.87
2023-10-15T20:53:54.589Z,42.96
2023-10-15T20:55:56.384Z,42.70
2023-10-15T20:57:59.704Z,42.58
2023-10-15T21:00:01.881Z,42.87
2023-10-15T21:02:03.625Z,43.20
2023-10-15T21:04:05.374Z,43.36
2023-10-15T21:06:07.002Z,43.59
2023-10-15T21:08:09.126Z,43.42
2023-10-15T21:10:12.609Z,43.95
2023-10-15T21:12:14.494Z,44.35
2023-10-15T21:14:17.611Z,43.84
2023-10-15T21:16:19.333Z,43.54
2023-10-15T21:18:21.001Z,43.85
2023-10-15T21:20:22.780Z,43.96
2023-10-15T21:22:24.571Z,43.90
2023-10-15T21:24:26.487Z,44.09
2023-10-15T21:26:28.358Z,44.78
2023-10-15T21:28:29.958Z,44.31
2023-10-15T21:30:33.434Z,44.36
2023-10-15T21:32:35.875Z,44.24
2023-10-15T21:34:37.560Z,44.08
2023-10-15T21:36:39.253Z,44.02
2023-10-15T21:38:40.918Z,44.00
2023-10-15T21:40:42.615Z,44.20
2023-10-15T21:42:44.451Z,44.22
2023-10-15T21:44:46.212Z,44.78
2023-10-15T21:46:49.273Z,44.62
2023-10-15T21:48:50.994Z,44.49
2023-10-15T21:50:52.680Z,43.76
2023-10-15T21:52:54.315Z,43.05
2023-10-15T21:54:56.022Z,43.02
2023-10-15T21:56:57.816Z,42.89
2023-10-15T21:58:59.585Z,43.54
2023-10-15T22:01:01.326Z,43.67
2023-10-15T22:03:05.253Z,43.99
2023-10-15T22:05:07.404Z,43.38
2023-10-15T22:07:10.684Z,43.01
2023-10-15T22:09:12.391Z,42.68
2023-10-15T22:11:14.681Z,41.82
2023-10-15T22:13:16.314Z,42.10
2023-10-15T22:15:18.175Z,42.55
2023-10-15T22:17:19.794Z,42.98
2023-10-15T22:19:22.848Z,42.96
2023-10-15T22:21:24.779Z,43.06
2023-10-15T22:23:26.466Z,43.34
2023-10-15T22:25:28.111Z,43.61
2023-10-15T22:27:29.758Z,43.93
2023-10-15T22:29:40.936Z,44.00
2023-10-15T22:31:44.468Z,44.54
2023-10-15T22:33:46.049Z,44.04
2023-10-15T22:35:49.097Z,44.12
2023-10-15T22:37:50.819Z,44.40
2023-10-15T22:39:52.500Z,44.35
2023-10-15T22:41:54.264Z,44.36
2023-10-15T22:43:55.839Z,44.99
2023-10-15T22:45:57.469Z,44.66
2023-10-15T22:47:59.254Z,44.83
2023-10-15T22:50:00.920Z,44.62
2023-10-15T22:52:04.229Z,44.19
2023-10-15T22:54:06.040Z,44.64
2023-10-15T22:56:07.661Z,44.23
2023-10-15T22:58:09.587Z,43.68
2023-10-15T23:00:12.309Z,42.95
2023-10-15T23:02:13.990Z,43.61
2023-10-15T23:04:15.669Z,43.68
2023-10-15T23:06:17.536Z,43.80
2023-10-15T23:08:20.684Z,44.13
2023-10-15T23:10:22.663Z,44.29
2023-10-15T23:12:24.473Z,44.60
2023-10-15T23:14:26.288Z,44.81
2023-10-15T23:16:29.519Z,44.22
2023-10-15T23:18:31.206Z,44.53
2023-10-15T23:20:34.750Z,44.21
2023-10-15T23:22:36.378Z,44.45
2023-10-15T23:24:39.576Z,44.76
2023-10-15T23:26:41.257Z,44.62
2023-10-15T23:28:42.893Z,44.55
2023-10-15T23:30:44.781Z,44.92
2023-10-15T23:32:46.456Z,44.51
2023-10-15T23:34:48.069Z,44.16
2023-10-15T23:36:49.795Z,44.52
2023-10-15T23:38:52.039Z,44.39
2023-10-15T23:40:55.015Z,44.60
2023-10-15T23:42:56.968Z,44.68
2023-10-15T23:44:58.658Z,44.88
2023-10-15T23:47:00.271Z,45.07
2023-10-15T23:49:01.915Z,45.09
2023-10-15T23:51:04.331Z,45.06
2023-10-15T23:53:06.008Z,45.16
2023-10-15T23:55:08.095Z,44.56
2023-10-15T23:57:11.215Z,44.54
2023-10-15T23:59:12.841Z,45.08
